Time;durP1;ratioP1;P1;durP2;ratioP2;P2;SDS_P1;SDS_P2;PMS_P1;PMS_P2;Temp;Humidity;BMP_temperature;BMP_pressure;BME280_temperature;BME280_humidity;BME280_pressure;Samples;Min_cycle;Max_cycle;Signal;HPM_P1;HPM_P2
2023/04/09 00:00:49;;;;;;;45.03;24.63;;;;;;;8.76;100.00;102436.16;5069820;28;20024;-96
2023/04/09 00:03:15;;;;;;;46.80;24.02;;;;;;;8.71;100.00;102428.72;5057209;28;20048;-95
2023/04/09 00:06:10;;;;;;;44.20;24.10;;;;;;;8.87;100.00;102451.56;5077067;28;20033;-95
2023/04/09 00:08:57;;;;;;;39.78;22.95;;;;;;;8.85;100.00;102444.78;5074600;28;20464;-95
2023/04/09 00:14:19;;;;;;;41.93;23.40;;;;;;;8.84;100.00;102440.47;5090445;22;20416;-95
2023/04/09 00:17:02;;;;;;;36.60;22.13;;;;;;;8.73;100.00;102423.19;5081472;28;20414;-95
2023/04/09 00:19:28;;;;;;;39.85;22.60;;;;;;;8.73;100.00;102428.53;5080612;28;20032;-94
2023/04/09 00:21:54;;;;;;;42.53;22.15;;;;;;;8.68;100.00;102423.78;5057073;28;20108;-95
2023/04/09 00:24:51;;;;;;;41.87;22.70;;;;;;;8.80;100.00;102429.34;5056880;28;20043;-95
2023/04/09 00:30:42;;;;;;;34.05;20.20;;;;;;;8.56;100.00;102404.91;5092961;22;20079;-96
2023/04/09 00:33:16;;;;;;;35.33;20.30;;;;;;;8.65;100.00;102413.53;5073410;28;20039;-96
2023/04/09 00:35:58;;;;;;;36.28;21.52;;;;;;;8.59;100.00;102403.66;5058411;28;20036;-96
2023/04/09 00:38:36;;;;;;;34.90;19.85;;;;;;;8.59;100.00;102409.00;5068676;28;20029;-96
2023/04/09 00:41:13;;;;;;;33.90;19.30;;;;;;;8.61;100.00;102409.63;5059233;28;20111;-96
2023/04/09 00:46:55;;;;;;;36.45;19.63;;;;;;;8.55;100.00;102405.94;5053797;28;20048;-96
2023/04/09 00:49:43;;;;;;;30.42;18.85;;;;;;;8.73;100.00;102421.34;5045442;28;20098;-96
2023/04/09 00:52:09;;;;;;;32.07;19.10;;;;;;;8.54;100.00;102393.59;5053802;28;20040;-95
2023/04/09 00:54:59;;;;;;;32.97;19.27;;;;;;;8.73;100.00;102426.69;5157737;22;20326;-94
2023/04/09 00:57:44;;;;;;;31.90;19.77;;;;;;;8.73;100.00;102425.88;5074567;28;20023;-94
2023/04/09 01:00:13;;;;;;;33.53;19.42;;;;;;;8.54;100.00;102395.44;5088270;28;20039;-96
2023/04/09 01:02:39;;;;;;;31.08;18.75;;;;;;;8.59;100.00;102404.47;5057149;28;20052;-95
2023/04/09 01:05:15;;;;;;;34.45;20.10;;;;;;;8.53;100.00;102394.63;5074658;28;20036;-96
2023/04/09 01:08:18;;;;;;;32.55;19.17;;;;;;;8.59;100.00;102403.66;5073900;28;20028;-96
2023/04/09 01:11:17;;;;;;;34.45;20.27;;;;;;;8.50;100.00;102392.34;5054462;28;20036;-96
2023/04/09 01:14:38;;;;;;;33.10;19.02;;;;;;;8.48;100.00;102387.22;5072590;28;20375;-96
2023/04/09 01:17:38;;;;;;;33.35;19.27;;;;;;;8.46;100.00;102385.75;5075927;28;20052;-95
2023/04/09 01:20:16;;;;;;;32.20;18.90;;;;;;;8.55;100.00;102389.91;5083396;22;20051;-96
2023/04/09 01:26:45;;;;;;;31.98;19.15;;;;;;;8.61;100.00;102414.97;4992716;28;20062;-96
2023/04/09 01:31:59;;;;;;;36.00;21.02;;;;;;;8.48;100.00;102389.06;5131420;22;20315;-96
2023/04/09 01:34:28;;;;;;;34.92;20.10;;;;;;;8.59;100.00;102406.31;5073051;28;20051;-95
2023/04/09 01:37:18;;;;;;;36.05;21.55;;;;;;;8.56;100.00;102402.22;5075173;28;20025;-96
2023/04/09 01:40:40;;;;;;;37.83;20.63;;;;;;;8.55;100.00;102403.25;5089263;22;20025;-96
2023/04/09 01:43:16;;;;;;;37.47;20.63;;;;;;;8.39;100.00;102379.59;5055680;28;20072;-96
2023/04/09 01:45:47;;;;;;;35.73;20.93;;;;;;;8.47;100.00;102393.56;5055052;28;20068;-96
2023/04/09 01:48:15;;;;;;;41.67;21.43;;;;;;;8.48;100.00;102397.06;5054238;28;20287;-96
2023/04/09 01:50:44;;;;;;;38.60;21.70;;;;;;;8.34;100.00;102369.50;5042887;28;20030;-95
2023/04/09 01:53:10;;;;;;;38.25;21.75;;;;;;;8.42;100.00;102384.50;5053533;28;20552;-96
2023/04/09 01:55:44;;;;;;;38.35;21.88;;;;;;;8.34;100.00;102374.84;5052865;28;20029;-96
2023/04/09 01:58:19;;;;;;;39.45;21.65;;;;;;;8.39;100.00;102383.06;5053243;28;20028;-95
2023/04/09 02:01:14;;;;;;;;;;;;;;;;;;;;;
2023/04/09 02:04:09;;;;;;;39.53;22.80;;;;;;;8.42;100.00;102384.50;5053475;28;20275;-96
2023/04/09 02:06:53;;;;;;;42.33;22.40;;;;;;;8.50;100.00;102400.38;4971109;28;20035;-95
2023/04/09 02:10:00;;;;;;;43.00;22.42;;;;;;;8.51;100.00;102398.50;5052468;28;20064;-96
2023/04/09 02:12:41;;;;;;;39.78;23.58;;;;;;;8.32;100.00;102377.72;5053037;28;20032;-96
2023/04/09 02:15:22;;;;;;;45.05;23.13;;;;;;;8.34;100.00;102378.34;5053518;28;20053;-96
2023/04/09 02:18:00;;;;;;;42.63;23.05;;;;;;;8.30;100.00;102371.75;5054204;28;20025;-96
2023/04/09 02:20:37;;;;;;;41.40;22.40;;;;;;;8.44;100.00;102390.47;5054709;28;20017;-96
2023/04/09 02:23:32;;;;;;;;;;;;;;;;;;;;;
2023/04/09 02:26:01;;;;;;;42.60;23.50;;;;;;;8.45;100.00;102386.75;5085655;28;20107;-96
2023/04/09 02:28:39;;;;;;;42.10;22.63;;;;;;;8.32;100.00;102375.06;5071463;28;20008;-96
2023/04/09 02:31:05;;;;;;;42.37;23.33;;;;;;;8.31;100.00;102375.25;5121877;22;20302;-96
2023/04/09 02:33:53;;;;;;;42.95;23.83;;;;;;;8.42;100.00;102384.50;5087039;28;20048;-96
2023/04/09 02:36:25;;;;;;;46.60;24.38;;;;;;;8.34;100.00;102377.50;5082999;28;20122;-96
2023/04/09 02:39:00;;;;;;;43.15;24.70;;;;;;;8.31;100.00;102372.56;5095671;28;20016;-95
2023/04/09 02:42:14;;;;;;;42.50;23.87;;;;;;;8.42;100.00;102387.16;5139815;22;20047;-96
2023/04/09 02:47:14;;;;;;;43.92;23.52;;;;;;;8.20;100.00;102355.34;5129324;22;20255;-95
2023/04/09 02:49:40;;;;;;;43.90;23.88;;;;;;;8.23;100.00;102354.91;5086800;28;20368;-96
2023/04/09 02:52:19;;;;;;;46.13;24.63;;;;;;;8.20;100.00;102360.69;5054665;28;20021;-96
2023/04/09 02:54:44;;;;;;;44.97;23.77;;;;;;;8.18;100.00;102346.69;5072860;28;20036;-96
2023/04/09 03:00:04;;;;;;;45.40;24.50;;;;;;;8.28;100.00;102365.00;4996410;28;20081;-96
2023/04/09 03:02:51;;;;;;;44.70;25.02;;;;;;;8.37;100.00;102384.31;5012629;28;20014;-95
2023/04/09 03:05:17;;;;;;;49.50;24.40;;;;;;;8.18;100.00;102341.38;5074283;28;20041;-94
2023/04/09 03:07:57;;;;;;;49.23;24.67;;;;;;;8.17;100.00;102337.03;5055281;28;20278;-95
2023/04/09 03:10:32;;;;;;;50.08;25.38;;;;;;;8.21;100.00;102350.81;5054274;28;20029;-95
2023/04/09 03:13:44;;;;;;;54.58;25.33;;;;;;;8.33;100.00;102371.34;5072756;28;20029;-96
2023/04/09 03:16:10;;;;;;;50.22;25.70;;;;;;;8.27;100.00;102360.69;5072844;28;20097;-96
2023/04/09 03:25:47;;;;;;;48.33;24.52;;;;;;;8.29;100.00;102359.44;5072976;28;20040;-95
2023/04/09 03:28:13;;;;;;;51.13;23.55;;;;;;;8.14;100.00;102340.94;5072356;28;20032;-95
2023/04/09 03:30:47;;;;;;;54.27;27.30;;;;;;;8.08;100.00;102336.41;5077737;28;20039;-95
2023/04/09 03:33:15;;;;;;;54.05;26.63;;;;;;;7.99;100.00;102330.47;5054751;28;20021;-96
2023/04/09 03:36:07;;;;;;;52.28;27.52;;;;;;;8.10;100.00;102346.88;5072663;28;20540;-95
2023/04/09 03:38:42;;;;;;;55.60;27.90;;;;;;;7.99;100.00;102325.13;5054549;28;20029;-95
2023/04/09 03:41:09;;;;;;;56.47;27.03;;;;;;;7.87;100.00;102314.22;5053447;28;20024;-95
2023/04/09 03:43:52;;;;;;;57.60;28.20;;;;;;;7.86;100.00;102322.41;5054276;28;20275;-95
2023/04/09 03:46:17;;;;;;;59.60;29.05;;;;;;;7.90;100.00;102339.66;5053976;28;20020;-95
2023/04/09 03:48:46;;;;;;;58.80;28.05;;;;;;;7.83;100.00;102333.50;5071638;28;20078;-94
2023/04/09 03:51:20;;;;;;;59.80;28.42;;;;;;;7.72;100.00;102314.38;5072608;28;20532;-95
2023/04/09 03:53:49;;;;;;;58.60;27.83;;;;;;;7.78;100.00;102330.63;5072923;28;20108;-95
2023/04/09 03:56:15;;;;;;;57.13;26.67;;;;;;;7.86;100.00;102347.25;5072648;28;20290;-95
2023/04/09 03:58:40;;;;;;;56.88;28.83;;;;;;;7.86;100.00;102347.25;5055256;28;20024;-96
2023/04/09 04:01:22;;;;;;;53.80;26.23;;;;;;;7.76;100.00;102332.66;5056075;28;20089;-96
2023/04/09 04:03:49;;;;;;;49.17;24.10;;;;;;;7.64;100.00;102321.75;5072053;28;20059;-95
2023/04/09 04:06:15;;;;;;;43.78;22.10;;;;;;;7.71;100.00;102342.09;5074184;28;20024;-96
2023/04/09 04:08:44;;;;;;;46.80;22.05;;;;;;;7.67;100.00;102338.16;5072605;28;20540;-96
2023/04/09 04:11:18;;;;;;;44.78;22.98;;;;;;;7.75;100.00;102353.19;5072564;28;20020;-95
2023/04/09 04:13:44;;;;;;;44.53;21.65;;;;;;;7.71;100.00;102350.09;5060434;28;20021;-96
2023/04/09 04:16:29;;;;;;;;;;;;;;;;;;;;;
2023/04/09 04:19:25;;;;;;;45.63;21.08;;;;;;;7.54;100.00;102335.47;5073960;28;20028;-96
2023/04/09 04:21:50;;;;;;;48.05;22.63;;;;;;;7.38;100.00;102326.00;5055772;28;20028;-96
2023/04/09 04:25:00;;;;;;;45.47;21.73;;;;;;;7.51;100.00;102352.72;5074414;28;20496;-96
2023/04/09 04:27:32;;;;;;;45.30;21.37;;;;;;;7.37;100.00;102341.16;5057332;28;20040;-96
2023/04/09 04:35:14;;;;;;;49.95;23.05;;;;;;;7.21;100.00;102336.97;5108471;28;20058;-94
2023/04/09 04:37:40;;;;;;;49.33;22.35;;;;;;;7.18;100.00;102333.88;5092272;28;20090;-96
2023/04/09 04:40:06;;;;;;;50.17;23.83;;;;;;;7.10;100.00;102340.22;5112171;28;20028;-96
2023/04/09 04:42:50;;;;;;;46.28;22.40;;;;;;;6.94;100.00;102336.00;5110324;28;20023;-96
2023/04/09 04:45:25;;;;;;;43.03;22.13;;;;;;;6.73;100.00;102319.09;5108874;28;20111;-96
2023/04/09 04:48:02;;;;;;;50.20;23.30;;;;;;;6.57;100.00;102322.06;5102778;28;20024;-96
2023/04/09 04:51:08;;;;;;;47.38;22.48;;;;;;;6.58;100.00;102363.63;5091032;28;20032;-96
2023/04/09 04:53:40;;;;;;;40.78;19.65;;;;;;;6.25;100.00;102324.25;5095540;28;20043;-96
2023/04/09 04:56:05;;;;;;;42.50;20.88;;;;;;;6.17;100.00;102338.53;5095056;28;20610;-96
2023/04/09 04:58:40;;;;;;;48.10;21.10;;;;;;;6.04;100.00;102340.06;5094396;28;20032;-96
2023/04/09 05:01:24;;;;;;;50.85;21.92;;;;;;;5.89;100.00;102328.63;5095736;28;20036;-96
2023/04/09 05:04:09;;;;;;;;;;;;;;;;;;;;;
2023/04/09 05:07:00;;;;;;;43.35;21.05;;;;;;;5.90;100.00;102362.19;5095502;28;20026;-96
2023/04/09 05:09:34;;;;;;;52.30;22.48;;;;;;;5.80;100.00;102361.66;5076503;28;20032;-96
2023/04/09 05:12:18;;;;;;;44.45;21.13;;;;;;;5.62;100.00;102333.63;5095622;28;20028;-96
2023/04/09 05:18:32;;;;;;;44.83;21.33;;;;;;;5.51;100.00;102326.16;5103437;28;20043;-96
2023/04/09 05:27:35;;;;;;;46.55;22.08;;;;;;;5.54;100.00;102334.56;5073651;28;20544;-96
2023/04/09 05:30:15;;;;;;;49.77;22.57;;;;;;;5.49;100.00;102329.00;5083443;28;20092;-95
2023/04/09 05:32:44;;;;;;;47.70;22.37;;;;;;;5.62;100.00;102357.56;5086294;28;20289;-95
2023/04/09 05:35:21;;;;;;;51.08;23.60;;;;;;;5.54;100.00;102347.06;5101693;28;20039;-96
2023/04/09 05:44:58;;;;;;;48.55;22.58;;;;;;;5.63;100.00;102353.09;4974042;28;20122;-96
2023/04/09 05:47:23;;;;;;;47.33;22.25;;;;;;;5.65;100.00;102354.56;4995004;28;20041;-95
2023/04/09 05:50:15;;;;;;;46.50;21.47;;;;;;;5.66;100.00;102350.06;4996895;28;20030;-96
2023/04/09 05:52:53;;;;;;;44.45;22.10;;;;;;;5.53;100.00;102332.13;4998076;28;20047;-95
2023/04/09 05:58:18;;;;;;;48.88;22.23;;;;;;;5.54;100.00;102333.78;5019531;22;20049;-96
2023/04/09 06:04:53;;;;;;;47.28;21.98;;;;;;;5.64;100.00;102331.63;5017692;28;20152;-96
2023/04/09 06:07:19;;;;;;;49.40;21.97;;;;;;;5.73;100.00;102335.00;5002061;28;20072;-96
2023/04/09 06:10:16;;;;;;;48.00;21.50;;;;;;;5.75;100.00;102336.44;5058751;28;20322;-96
2023/04/09 06:22:21;;;;;;;48.70;23.10;;;;;;;5.91;100.00;102338.06;4984189;22;20056;-96
2023/04/09 06:28:17;;;;;;;47.97;22.17;;;;;;;6.11;100.00;102353.41;5073769;28;20035;-96
2023/04/09 06:36:51;;;;;;;46.90;21.77;;;;;;;6.35;100.00;102367.38;5074769;28;20036;-95
2023/04/09 06:47:34;;;;;;;47.47;22.77;;;;;;;6.57;100.00;102378.00;5310222;22;20303;-94
2023/04/09 06:53:44;;;;;;;47.35;23.17;;;;;;;6.74;100.00;102391.84;5082270;28;20047;-94
2023/04/09 07:02:08;;;;;;;51.55;23.75;;;;;;;6.88;100.00;102380.25;5092701;28;20039;-95
2023/04/09 07:04:34;;;;;;;50.13;24.83;;;;;;;6.95;100.00;102380.28;5075465;28;20020;-95
2023/04/09 07:07:12;;;;;;;49.80;24.35;;;;;;;6.91;100.00;102363.88;5091738;28;20035;-95
2023/04/09 07:09:47;;;;;;;49.85;24.25;;;;;;;6.99;100.00;102364.75;5089371;28;20135;-95
2023/04/09 07:12:12;;;;;;;52.20;25.13;;;;;;;7.20;100.00;102383.34;5056873;28;20032;-95
2023/04/09 07:14:44;;;;;;;51.63;24.63;;;;;;;7.24;100.00;102373.09;5074785;28;20447;-94
2023/04/09 07:17:09;;;;;;;52.03;25.90;;;;;;;7.40;100.00;102387.94;5077168;28;20035;-96
2023/04/09 07:19:45;;;;;;;53.03;25.77;;;;;;;7.26;100.00;102366.53;5076282;28;20036;-95
2023/04/09 07:25:38;;;;;;;49.50;24.92;;;;;;;7.50;100.00;102376.91;5074194;28;20055;-96
2023/04/09 07:28:04;;;;;;;48.90;25.17;;;;;;;7.67;100.00;102396.06;5074532;28;20046;-95
2023/04/09 07:31:03;;;;;;;47.67;24.57;;;;;;;7.75;100.00;102395.06;5072277;28;20108;-95
2023/04/09 07:33:47;;;;;;;51.75;24.67;;;;;;;7.63;100.00;102362.78;5054400;28;20655;-94
2023/04/09 07:41:58;;;;;;;47.73;27.13;;;;;;;8.12;100.00;102399.06;5186768;22;20334;-96
2023/04/09 07:44:36;;;;;;;47.53;24.95;;;;;;;8.12;100.00;102385.72;5053776;28;20048;-94
2023/04/09 07:47:14;;;;;;;50.17;25.65;;;;;;;8.08;100.00;102364.94;5092425;28;20024;-95
2023/04/09 07:49:46;;;;;;;52.70;27.17;;;;;;;8.23;100.00;102373.59;5076177;28;20498;-96
2023/04/09 07:52:11;;;;;;;46.97;25.35;;;;;;;8.30;100.00;102379.78;5072089;28;20124;-95
2023/04/09 07:57:59;;;;;;;47.88;24.02;;;;;;;8.37;100.00;102371.75;5071533;28;20691;-96
2023/04/09 08:00:24;;;;;;;50.10;25.13;;;;;;;8.42;100.00;102371.97;5071607;28;20020;-95
2023/04/09 08:02:50;;;;;;;46.22;25.55;;;;;;;8.47;100.00;102369.53;5072579;28;20495;-96
2023/04/09 08:05:22;;;;;;;47.63;25.20;;;;;;;8.68;100.00;102372.19;5074382;28;20052;-96
2023/04/09 08:10:58;;;;;;;48.95;25.63;;;;;;;9.41;100.00;102408.66;5162138;22;20045;-96
2023/04/09 08:13:42;;;;;;;46.15;24.70;;;;;;;9.64;100.00;102389.44;5072484;28;20032;-96
2023/04/09 08:16:07;;;;;;;44.47;24.27;;;;;;;9.92;100.00;102403.50;5072379;28;20064;-95
2023/04/09 08:19:20;;;;;;;44.67;25.53;;;;;;;10.13;100.00;102403.16;5269567;22;20023;-95
2023/04/09 08:21:47;;;;;;;44.95;25.15;;;;;;;9.98;100.00;102370.50;5079764;28;20157;-96
2023/04/09 08:24:42;;;;;;;46.67;25.17;;;;;;;10.30;100.00;102402.63;5078755;28;20071;-95
2023/04/09 08:27:45;;;;;;;46.20;25.45;;;;;;;10.39;100.00;102404.06;5076594;28;20429;-95
2023/04/09 08:34:05;;;;;;;43.13;25.08;;;;;;;10.74;100.00;102408.09;5332868;22;20049;-95
2023/04/09 08:36:31;;;;;;;46.30;25.05;;;;;;;10.64;100.00;102378.28;5088595;28;20056;-96
2023/04/09 08:39:09;;;;;;;45.13;25.73;;;;;;;10.84;100.00;102378.94;5315056;22;20040;-96
2023/04/09 08:51:00;;;;;;;48.17;27.50;;;;;;;12.10;93.88;102377.59;5380560;22;20471;-95
2023/04/09 08:53:26;;;;;;;46.38;27.70;;;;;;;12.31;91.54;102390.72;5093195;28;20020;-96
2023/04/09 08:55:52;;;;;;;48.65;27.85;;;;;;;12.21;90.52;102381.38;5113393;28;20461;-96
2023/04/09 08:58:17;;;;;;;43.87;25.80;;;;;;;12.37;92.27;102393.31;5108091;28;20021;-96
2023/04/09 09:00:43;;;;;;;47.60;27.50;;;;;;;12.46;91.12;102372.28;5094633;28;20093;-96
2023/04/09 09:03:11;;;;;;;47.13;27.67;;;;;;;12.72;89.20;102379.06;5094395;28;20067;-96
2023/04/09 09:05:52;;;;;;;47.08;27.20;;;;;;;12.84;90.38;102365.59;5058759;28;20236;-96
2023/04/09 09:08:25;;;;;;;44.10;27.50;;;;;;;12.97;87.89;102391.44;5075955;28;20025;-96
2023/04/09 09:10:53;;;;;;;45.97;27.58;;;;;;;12.89;89.44;102364.91;5075141;28;20384;-96
2023/04/09 09:13:30;;;;;;;43.33;27.67;;;;;;;13.27;85.91;102395.03;5075275;28;20025;-96
2023/04/09 09:16:12;;;;;;;44.50;29.73;;;;;;;13.31;89.26;102372.78;5075584;28;20279;-95
2023/04/09 09:21:37;;;;;;;40.55;26.42;;;;;;;13.43;83.49;102364.69;5076556;28;20047;-96
2023/04/09 09:27:38;;;;;;;43.40;27.00;;;;;;;12.87;86.42;102378.59;5092148;28;20058;-96
2023/04/09 09:30:25;;;;;;;42.63;25.35;;;;;;;12.49;87.25;102355.69;5098064;28;20012;-96
2023/04/09 09:36:36;;;;;;;48.25;28.77;;;;;;;12.49;91.60;102355.69;5094175;22;20566;-96
2023/04/09 09:39:04;;;;;;;46.97;28.63;;;;;;;12.70;89.24;102358.84;5144021;22;20090;-95
2023/04/09 09:42:06;;;;;;;44.70;27.00;;;;;;;12.92;89.32;102371.69;5079615;28;20024;-96
2023/04/09 09:45:22;;;;;;;41.37;27.07;;;;;;;13.00;87.16;102374.84;5083335;28;20267;-96
2023/04/09 09:47:48;;;;;;;41.42;26.85;;;;;;;12.92;87.53;102348.28;5077832;28;20588;-96
2023/04/09 09:50:16;;;;;;;43.33;25.33;;;;;;;13.26;86.87;102369.97;5057815;28;20372;-96
2023/04/09 09:52:45;;;;;;;42.83;26.48;;;;;;;13.39;86.37;102355.44;5060545;28;20028;-96
2023/04/09 09:55:17;;;;;;;41.08;25.58;;;;;;;13.51;84.26;102338.47;5074892;22;20551;-94
2023/04/09 09:57:44;;;;;;;36.10;23.98;;;;;;;13.85;81.50;102343.91;5078029;28;20056;-96
2023/04/09 10:00:26;;;;;;;39.40;24.02;;;;;;;13.98;83.34;102354.38;5059643;28;20749;-96
2023/04/09 10:02:56;;;;;;;39.00;24.17;;;;;;;14.02;79.17;102349.31;5062914;28;20033;-96
2023/04/09 10:05:38;;;;;;;38.95;26.33;;;;;;;13.92;80.42;102334.63;5065318;28;20017;-96
2023/04/09 10:08:26;;;;;;;36.73;23.77;;;;;;;13.88;80.27;102325.38;5065237;28;20043;-96
2023/04/09 10:11:24;;;;;;;35.47;23.63;;;;;;;13.65;80.23;102328.19;5088986;28;20291;-96
2023/04/09 10:14:40;;;;;;;34.55;23.48;;;;;;;13.74;79.86;102327.56;5087010;28;20434;-96
2023/04/09 10:17:21;;;;;;;35.67;22.67;;;;;;;14.29;78.42;102335.19;5000957;28;20100;-96
2023/04/09 10:23:03;;;;;;;32.97;22.35;;;;;;;14.75;76.30;102343.97;5015319;28;20049;-96
2023/04/09 10:34:49;;;;;;;34.70;20.63;;;;;;;14.76;70.60;102325.91;4952572;28;20038;-96
2023/04/09 10:43:52;;;;;;;25.83;18.83;;;;;;;14.96;70.02;102320.78;5565768;22;20050;-96
2023/04/09 10:46:56;;;;;;;;;;;;;;;;;;;;;
2023/04/09 10:52:45;;;;;;;30.27;20.05;;;;;;;16.02;65.27;102288.06;5070601;28;20605;-96
2023/04/09 10:55:47;;;;;;;28.13;19.50;;;;;;;16.74;69.84;102286.88;5068089;28;20014;-96
2023/04/09 11:01:35;;;;;;;23.47;16.57;;;;;;;16.94;58.54;102307.81;4992720;28;20325;-96
2023/04/09 11:06:56;;;;;;;25.00;17.40;;;;;;;15.77;60.33;102296.75;5542941;22;20056;-96
2023/04/09 11:09:41;;;;;;;25.73;16.83;;;;;;;15.24;62.58;102270.34;5141311;22;20040;-96
2023/04/09 11:15:35;;;;;;;22.02;15.88;;;;;;;15.48;65.77;102290.81;5428611;22;20120;-96
2023/04/09 11:24:42;;;;;;;24.63;16.25;;;;;;;14.99;62.91;102273.56;5014592;28;20040;-96
2023/04/09 11:27:20;;;;;;;23.88;16.50;;;;;;;14.91;64.26;102285.63;5071875;28;20084;-96
2023/04/09 11:29:46;;;;;;;29.40;16.95;;;;;;;14.71;63.50;102266.50;5085167;22;20033;-96
2023/04/09 11:32:11;;;;;;;22.80;16.05;;;;;;;14.82;63.67;102287.13;5164875;22;20475;-96
2023/04/09 11:34:37;;;;;;;21.90;14.53;;;;;;;14.92;63.75;102279.16;5101455;28;20026;-96
2023/04/09 11:37:07;;;;;;;18.30;13.70;;;;;;;15.04;61.50;102272.81;5101870;28;20099;-96
2023/04/09 11:39:46;;;;;;;;;;;;;;;;;;;;;
2023/04/09 11:42:18;;;;;;;20.65;14.40;;;;;;;15.43;60.71;102280.78;5092546;28;20055;-96
2023/04/09 11:44:48;;;;;;;20.58;14.18;;;;;;;15.72;58.80;102277.78;5071188;28;20059;-96
2023/04/09 11:53:31;;;;;;;18.20;12.07;;;;;;;16.64;57.13;102266.81;5767499;22;20066;-96
2023/04/09 11:56:15;;;;;;;17.60;13.20;;;;;;;16.54;56.83;102261.34;5083597;28;20108;-96
2023/04/09 11:58:56;;;;;;;17.88;12.85;;;;;;;16.68;56.47;102248.16;5148197;22;20071;-96
2023/04/09 12:01:22;;;;;;;15.90;11.55;;;;;;;17.04;55.89;102251.00;5103921;28;20529;-96
2023/04/09 12:04:10;;;;;;;;;;;;;;;;;;;;;
2023/04/09 12:06:48;;;;;;;14.38;10.50;;;;;;;17.30;53.35;102270.03;5104285;28;20088;-96
2023/04/09 12:09:17;;;;;;;15.53;11.90;;;;;;;16.85;52.28;102260.66;5078527;28;20020;-96
2023/04/09 12:11:49;;;;;;;13.90;10.60;;;;;;;16.64;54.24;102279.50;5061795;28;20289;-96
2023/04/09 12:14:34;;;;;;;15.70;11.95;;;;;;;16.48;54.44;102263.22;5080037;28;20017;-96
2023/04/09 12:17:00;;;;;;;17.50;11.82;;;;;;;16.37;54.73;102258.84;5080015;28;20052;-96
2023/04/09 12:19:26;;;;;;;16.60;11.40;;;;;;;16.44;55.11;102255.88;5080039;28;20090;-96
2023/04/09 12:22:10;;;;;;;16.53;11.27;;;;;;;16.85;56.32;102247.13;5078752;28;20438;-96
2023/04/09 12:24:47;;;;;;;14.77;10.00;;;;;;;17.36;53.08;102252.69;5079717;28;20271;-94
2023/04/09 12:27:16;;;;;;;14.50;9.75;;;;;;;17.28;50.03;102266.78;5075326;28;20052;-96
2023/04/09 12:32:28;;;;;;;13.52;9.68;;;;;;;17.09;53.59;102259.16;5100865;22;20048;-95
2023/04/09 12:35:05;;;;;;;12.90;9.68;;;;;;;17.39;51.53;102262.97;5094995;28;20054;-96
2023/04/09 12:37:30;;;;;;;13.20;9.90;;;;;;;17.30;50.00;102255.66;5059149;28;20043;-96
2023/04/09 12:45:54;;;;;;;12.30;9.80;;;;;;;17.37;51.15;102229.13;5096575;28;20517;-96
2023/04/09 12:48:20;;;;;;;12.25;9.73;;;;;;;17.95;49.76;102250.50;5063840;28;20028;-96
2023/04/09 12:50:50;;;;;;;12.20;8.97;;;;;;;18.10;46.33;102247.00;5059202;28;20423;-96
2023/04/09 12:53:28;;;;;;;13.45;10.30;;;;;;;17.79;46.97;102228.03;5080382;28;20024;-96
2023/04/09 12:56:11;;;;;;;11.27;9.23;;;;;;;17.85;49.21;102247.81;5081696;28;20025;-96
2023/04/09 12:58:50;;;;;;;11.77;9.40;;;;;;;17.47;48.03;102231.03;5084723;28;20108;-96
2023/04/09 13:01:28;;;;;;;12.85;9.18;;;;;;;17.41;50.30;102236.44;5073207;28;20064;-96
2023/04/09 13:03:56;;;;;;;13.48;9.95;;;;;;;17.48;48.05;102241.59;5093923;28;20104;-96
2023/04/09 13:06:47;;;;;;;11.63;9.63;;;;;;;17.24;48.44;102214.22;5090168;28;20035;-96
2023/04/09 13:09:34;;;;;;;12.30;9.50;;;;;;;17.30;49.10;102231.28;5079407;28;20479;-96
2023/04/09 13:12:25;;;;;;;14.20;9.90;;;;;;;17.00;48.84;102233.66;5086346;28;20033;-96
2023/04/09 13:14:52;;;;;;;13.25;9.13;;;;;;;16.81;48.51;102201.63;5090185;28;20032;-96
2023/04/09 13:18:12;;;;;;;12.15;9.73;;;;;;;17.23;48.70;102232.38;5074254;28;20051;-96
2023/04/09 13:20:41;;;;;;;11.23;9.00;;;;;;;17.01;47.88;102219.03;5091809;28;20040;-96
2023/04/09 13:23:16;;;;;;;11.60;9.38;;;;;;;17.08;48.27;102243.16;5072752;28;20092;-96
2023/04/09 13:26:25;;;;;;;;;;;;;;;;;;;;;
2023/04/09 13:32:24;;;;;;;11.43;9.47;;;;;;;16.65;48.39;102206.19;4967329;28;20309;-96
2023/04/09 13:35:24;;;;;;;13.25;9.95;;;;;;;16.48;50.32;102244.28;4963257;28;20019;-96
2023/04/09 13:38:15;;;;;;;13.68;9.10;;;;;;;16.17;48.57;102238.69;5137229;22;20054;-96
2023/04/09 13:40:43;;;;;;;12.48;8.88;;;;;;;16.02;47.48;102241.31;5118152;28;20009;-96
2023/04/09 13:46:15;;;;;;;13.85;8.80;;;;;;;16.11;51.08;102225.41;5062987;28;20036;-96
2023/04/09 13:48:42;;;;;;;11.68;9.02;;;;;;;15.87;49.26;102202.31;5271457;22;20122;-96
2023/04/09 13:51:16;;;;;;;12.48;8.90;;;;;;;15.97;50.11;102195.31;5097904;28;20035;-96
2023/04/09 13:53:42;;;;;;;12.27;8.63;;;;;;;15.93;49.20;102202.31;5098518;28;20024;-96
2023/04/09 13:56:14;;;;;;;12.10;8.60;;;;;;;15.99;49.57;102206.69;5099313;28;20339;-96
2023/04/09 13:59:01;;;;;;;10.02;8.05;;;;;;;16.15;49.29;102204.91;5402020;22;20044;-96
2023/04/09 14:01:29;;;;;;;12.15;8.05;;;;;;;16.34;48.09;102207.97;5064093;28;20040;-96
2023/04/09 14:07:48;;;;;;;10.80;8.23;;;;;;;16.41;49.30;102208.53;5210232;22;20328;-96
2023/04/09 14:14:19;;;;;;;;;;;;;;;;;;;;;
2023/04/09 14:20:27;;;;;;;11.20;7.95;;;;;;;16.59;46.97;102165.88;5084858;28;20043;-96
2023/04/09 14:22:53;;;;;;;9.60;7.43;;;;;;;16.86;47.95;102187.31;5049856;28;20029;-96
2023/04/09 14:25:40;;;;;;;11.68;7.70;;;;;;;16.96;47.95;102164.91;5084149;28;20028;-96
2023/04/09 14:28:05;;;;;;;11.97;8.87;;;;;;;16.75;47.29;102164.81;5135105;22;20059;-96
2023/04/09 14:30:53;;;;;;;11.93;8.53;;;;;;;16.67;48.27;102172.66;5177498;22;20306;-96
2023/04/09 14:33:25;;;;;;;11.45;8.13;;;;;;;16.27;48.17;102147.88;5089575;28;20127;-96
2023/04/09 14:35:55;;;;;;;8.90;7.95;;;;;;;16.28;49.63;102179.25;5088886;28;20089;-96
2023/04/09 14:38:43;;;;;;;10.38;8.25;;;;;;;16.40;48.71;102169.03;5129403;22;20094;-95
2023/04/09 14:41:09;;;;;;;10.50;8.10;;;;;;;16.44;47.22;102142.28;5024390;28;20029;-95
2023/04/09 14:43:35;;;;;;;9.30;8.30;;;;;;;16.64;47.21;102141.50;5077688;28;20024;-96
2023/04/09 14:48:47;;;;;;;10.13;7.20;;;;;;;17.18;47.26;102147.56;5151008;22;20801;-94
2023/04/09 14:54:47;;;;;;;10.32;7.97;;;;;;;17.83;46.58;102160.53;5106151;28;20545;-94
2023/04/09 15:00:03;;;;;;;9.30;7.47;;;;;;;17.90;45.09;102163.75;5099586;28;20103;-96
2023/04/09 15:02:38;;;;;;;9.23;7.70;;;;;;;17.75;45.84;102156.47;5097709;28;20281;-96
2023/04/09 15:05:13;;;;;;;9.70;7.63;;;;;;;17.91;46.08;102157.22;5099074;28;20032;-96
2023/04/09 15:13:55;;;;;;;9.27;7.47;;;;;;;17.73;46.19;102123.41;5009177;28;20030;-96
2023/04/09 15:16:50;;;;;;;;;;;;;;;;;;;;;
2023/04/09 15:19:36;;;;;;;11.43;7.22;;;;;;;17.67;45.52;102113.66;5093478;28;20052;-96
2023/04/09 15:25:54;;;;;;;9.60;6.90;;;;;;;18.00;45.09;102128.50;5094740;28;20036;-96
2023/04/09 15:28:54;;;;;;;9.00;7.20;;;;;;;17.86;44.05;102113.88;5047840;28;20048;-96
2023/04/09 15:31:22;;;;;;;8.57;6.55;;;;;;;17.88;43.95;102111.72;5087064;28;20064;-96
2023/04/09 15:33:49;;;;;;;8.35;6.75;;;;;;;17.63;44.11;102094.44;5085921;28;20032;-95
2023/04/09 15:36:23;;;;;;;8.05;6.70;;;;;;;17.48;44.45;102097.19;5051431;28;20032;-96
2023/04/09 15:38:52;;;;;;;8.05;7.03;;;;;;;17.10;45.94;102073.91;5080457;28;20117;-96
2023/04/09 15:41:44;;;;;;;7.30;6.10;;;;;;;17.19;46.48;102100.44;5070853;28;20022;-96
2023/04/09 15:44:10;;;;;;;10.10;6.70;;;;;;;16.95;44.61;102098.28;5088293;28;20016;-96
2023/04/09 15:46:54;;;;;;;9.38;6.68;;;;;;;16.47;45.63;102093.03;5085714;28;20012;-96
2023/04/09 15:53:08;;;;;;;9.32;6.03;;;;;;;16.15;47.21;102119.16;5061554;28;20084;-96
2023/04/09 15:58:57;;;;;;;7.43;6.07;;;;;;;15.75;48.94;102112.44;5077512;28;20047;-96